Arklow Rock — PBZM — position and weather

sailwx.info

Track history (hours):
 
Tides and Currents Weather Stations Pressure Air Temp Water Temp Dewpoint Dewpoint Depression Visibility Wind Speed Wind Dir Waves Ship Positions

Arklow Rock

Last reported at 2016-Feb-10 07:33 UTC. Time now 2016-Feb-13 15:16 UTC.
Position N 53°58' W 005°39'.

Length 90 m; draft 4 m.

Type: Cargo ship. MMSI: 246002000.

Date/timePositionNaut miles runAvg speedWind from/ knotsBaromVisibWave heightAir tempDewpointWater temp
2016-Feb-10 07:33N 53°58' W 005°39'2512.5
2016-Feb-10 05:33N 54°21' W 005°22'1211.6
2016-Feb-10 04:33N 54°33' W 005°22'4210.4
2016-Feb-10 00:31N 55°10' W 005°56'1212.8
2016-Feb-09 23:33N 55°19' W 006°09'1313.4
2016-Feb-09 22:33N 55°17' W 006°33'5 0.2
2016-Feb-09 00:33N 55°19' W 006°23'10 9.5
2016-Feb-08 23:33N 55°18' W 006°07'29 9.4
2016-Feb-08 20:31N 54°54' W 005°38'9 9.1
2016-Feb-08 19:33N 54°47' W 005°29'9 8.9
2016-Feb-08 18:33N 54°40' W 005°21'1010.1
2016-Feb-08 17:33N 54°30' W 005°20'1110.6
2016-Feb-08 16:33N 54°19' W 005°20'1010.4
2016-Feb-08 15:33N 54°09' W 005°23'  
Track history (hours):
 
Tides and Currents Weather Stations Pressure Air Temp Water Temp Dewpoint Dewpoint Depression Visibility Wind Speed Wind Dir Waves Ship Positions

Arklow Rock

Last reported at 2016-Feb-10 07:33 UTC. Time now 2016-Feb-13 15:16 UTC.
Position N 53°58' W 005°39'.

Length 90 m; draft 4 m.

Type: Cargo ship. MMSI: 246002000.

Date/timePositionNaut miles runAvg speedWind from/ knotsBaromVisibWave heightAir tempDewpointWater temp
2016-Feb-10 07:33N 53°58' W 005°39'2512.5
2016-Feb-10 05:33N 54°21' W 005°22'1211.6
2016-Feb-10 04:33N 54°33' W 005°22'4210.4
2016-Feb-10 00:31N 55°10' W 005°56'1212.8
2016-Feb-09 23:33N 55°19' W 006°09'1313.4
2016-Feb-09 22:33N 55°17' W 006°33'5 0.2
2016-Feb-09 00:33N 55°19' W 006°23'10 9.5
2016-Feb-08 23:33N 55°18' W 006°07'29 9.4
2016-Feb-08 20:31N 54°54' W 005°38'9 9.1
2016-Feb-08 19:33N 54°47' W 005°29'9 8.9
2016-Feb-08 18:33N 54°40' W 005°21'1010.1
2016-Feb-08 17:33N 54°30' W 005°20'1110.6
2016-Feb-08 16:33N 54°19' W 005°20'1010.4
2016-Feb-08 15:33N 54°09' W 005°23'  

Dump ship's entire track history